Time;durP1;ratioP1;P1;durP2;ratioP2;P2;SDS_P1;SDS_P2;PMS_P1;PMS_P2;Temp;Humidity;BMP_temperature;BMP_pressure;BME280_temperature;BME280_humidity;BME280_pressure;Samples;Min_cycle;Max_cycle;Signal;HPM_P1;HPM_P2
2022/05/23 00:02:12;;;;;;;2.20;2.00;;;17.70;1.00;;;;;;7358367;19;20027;-61
2022/05/23 00:04:42;;;;;;;3.83;1.83;;;17.80;1.00;;;;;;7361970;19;20130;-61
2022/05/23 00:07:16;;;;;;;2.97;1.83;;;17.70;1.00;;;;;;7365979;19;20034;-61
2022/05/23 00:09:45;;;;;;;2.33;1.80;;;17.70;1.00;;;;;;7364016;19;20084;-60
2022/05/23 00:12:15;;;;;;;2.72;1.80;;;17.70;1.00;;;;;;7357258;19;20015;-61
2022/05/23 00:14:46;;;;;;;2.08;1.67;;;17.70;1.00;;;;;;7384342;19;20019;-61
2022/05/23 00:17:18;;;;;;;3.00;1.92;;;17.60;1.00;;;;;;7364569;19;20078;-61
2022/05/23 00:19:49;;;;;;;2.60;2.00;;;17.50;1.00;;;;;;7364372;19;20027;-61
2022/05/23 00:22:19;;;;;;;4.72;1.98;;;17.60;1.00;;;;;;7358637;19;20035;-61
2022/05/23 00:24:49;;;;;;;3.28;1.80;;;17.40;1.00;;;;;;7362786;19;20014;-62
2022/05/23 00:27:23;;;;;;;3.47;2.00;;;17.40;1.00;;;;;;7364656;19;20798;-61
2022/05/23 00:29:54;;;;;;;3.05;1.90;;;17.40;1.00;;;;;;7385741;19;20508;-61
2022/05/23 00:35:22;;;;;;;3.15;1.80;;;17.60;1.00;;;;;;7360862;19;20011;-61
2022/05/23 00:37:55;;;;;;;3.42;2.10;;;17.60;1.00;;;;;;7363343;19;20011;-62
2022/05/23 00:40:45;;;;;;;5.78;2.10;;;17.70;1.00;;;;;;7363911;19;20010;-62
2022/05/23 00:43:19;;;;;;;2.70;1.95;;;17.70;1.00;;;;;;7361295;19;20533;-62
2022/05/23 00:45:52;;;;;;;2.80;1.73;;;17.60;1.00;;;;;;7361993;19;20012;-62
2022/05/23 00:48:28;;;;;;;2.42;1.70;;;17.70;1.00;;;;;;7363692;19;20004;-62
2022/05/23 00:51:01;;;;;;;3.30;2.05;;;17.60;1.00;;;;;;7388312;19;20534;-62
2022/05/23 00:53:36;;;;;;;3.90;2.00;;;17.60;1.00;;;;;;7363056;19;20024;-60
2022/05/23 00:56:09;;;;;;;3.30;1.92;;;17.50;1.00;;;;;;7370088;19;20018;-61
2022/05/23 00:58:43;;;;;;;1.88;1.70;;;17.40;1.00;;;;;;7367850;19;20093;-60
2022/05/23 01:01:15;;;;;;;;;;;17.40;1.00;;;;;;7368468;19;20076;-63
2022/05/23 01:03:48;;;;;;;2.38;2.00;;;17.30;1.00;;;;;;7368563;19;20683;-62
2022/05/23 01:06:18;;;;;;;2.67;2.25;;;17.10;1.00;;;;;;7371204;19;20025;-61
2022/05/23 01:08:50;;;;;;;3.60;2.10;;;17.00;1.00;;;;;;7391820;19;21191;-61
2022/05/23 01:11:21;;;;;;;5.35;1.88;;;17.20;1.00;;;;;;7364211;19;20400;-61
2022/05/23 01:13:53;;;;;;;3.90;2.20;;;17.20;1.00;;;;;;7368173;19;20419;-61
2022/05/23 01:16:25;;;;;;;3.25;2.05;;;17.10;1.00;;;;;;7371024;19;20014;-61
2022/05/23 01:18:57;;;;;;;2.50;2.00;;;17.00;1.00;;;;;;7369036;19;20022;-61
2022/05/23 01:21:39;;;;;;;2.10;1.90;;;16.90;1.00;;;;;;7364671;19;20022;-61
2022/05/23 01:24:16;;;;;;;2.63;2.20;;;16.70;1.00;;;;;;7367909;19;20082;-61
2022/05/23 01:26:49;;;;;;;3.08;2.53;;;16.60;1.00;;;;;;7392896;19;20015;-62
2022/05/23 01:29:19;;;;;;;2.58;2.15;;;16.50;1.00;;;;;;7368450;19;20018;-62
2022/05/23 01:31:50;;;;;;;2.70;2.15;;;16.60;1.00;;;;;;7361544;19;20398;-62
2022/05/23 01:34:19;;;;;;;2.40;2.20;;;16.60;1.00;;;;;;7367289;19;20483;-61
2022/05/23 01:36:49;;;;;;;3.53;2.47;;;16.60;1.00;;;;;;7370257;19;20533;-61
2022/05/23 01:39:19;;;;;;;2.65;2.00;;;16.60;1.00;;;;;;7368088;19;20010;-62
2022/05/23 01:41:52;;;;;;;2.67;2.22;;;16.70;1.00;;;;;;7384855;19;20023;-62
2022/05/23 01:44:24;;;;;;;2.88;2.17;;;16.90;1.00;;;;;;7366921;19;20019;-62
2022/05/23 01:46:55;;;;;;;2.67;2.15;;;16.90;1.00;;;;;;7369406;19;20011;-61
2022/05/23 01:49:25;;;;;;;3.20;2.35;;;16.90;1.00;;;;;;7367760;19;20031;-61
2022/05/23 01:51:55;;;;;;;5.10;2.83;;;16.90;1.00;;;;;;7360572;19;20006;-62
2022/05/23 01:54:24;;;;;;;4.70;2.65;;;16.80;1.00;;;;;;7366434;19;20435;-62
2022/05/23 01:56:57;;;;;;;3.70;2.70;;;16.80;1.00;;;;;;7391641;19;20020;-61
2022/05/23 02:02:09;;;;;;;3.78;2.63;;;16.80;1.00;;;;;;7360133;19;20007;-61
2022/05/23 02:04:39;;;;;;;3.38;2.60;;;16.80;1.00;;;;;;7364862;19;20021;-61
2022/05/23 02:07:09;;;;;;;4.13;2.60;;;16.80;1.00;;;;;;7369648;19;20077;-62
2022/05/23 02:09:40;;;;;;;5.10;2.45;;;16.80;1.00;;;;;;7368264;19;20006;-62
2022/05/23 02:12:17;;;;;;;4.65;2.58;;;16.80;1.00;;;;;;7362060;19;20014;-62
2022/05/23 02:14:48;;;;;;;4.45;2.22;;;16.70;1.00;;;;;;7387089;19;20017;-62
2022/05/23 02:17:19;;;;;;;2.63;2.30;;;16.70;1.00;;;;;;7368451;19;20018;-62
2022/05/23 02:19:49;;;;;;;4.45;2.60;;;16.60;1.00;;;;;;7367241;19;20052;-61
2022/05/23 02:22:20;;;;;;;5.20;2.70;;;16.70;1.00;;;;;;7360898;19;20015;-62
2022/05/23 02:24:50;;;;;;;4.22;2.60;;;16.80;1.00;;;;;;7366012;19;20479;-62
2022/05/23 02:27:22;;;;;;;4.05;2.58;;;16.80;1.00;;;;;;7368856;19;20066;-62
2022/05/23 02:29:52;;;;;;;2.78;2.38;;;16.70;1.00;;;;;;7389457;19;20450;-62
2022/05/23 02:32:22;;;;;;;4.45;2.47;;;16.60;1.00;;;;;;7360521;19;20077;-60
2022/05/23 02:34:52;;;;;;;4.47;2.22;;;16.60;1.00;;;;;;7364894;19;20006;-61
2022/05/23 02:37:22;;;;;;;3.83;2.35;;;16.70;1.00;;;;;;7368036;19;20023;-61
2022/05/23 02:39:52;;;;;;;3.75;2.45;;;16.60;1.00;;;;;;7367027;19;20086;-61
2022/05/23 02:42:25;;;;;;;2.47;2.20;;;16.70;1.00;;;;;;7361304;19;20036;-61
2022/05/23 02:44:55;;;;;;;4.68;2.70;;;16.60;1.00;;;;;;7386497;19;20565;-61
2022/05/23 02:47:25;;;;;;;3.35;2.30;;;16.50;1.00;;;;;;7366983;19;20129;-61
2022/05/23 02:49:55;;;;;;;6.03;2.40;;;16.60;1.00;;;;;;7366898;19;20014;-61
2022/05/23 02:52:25;;;;;;;4.13;2.47;;;16.50;1.00;;;;;;7358918;19;20006;-61
2022/05/23 02:54:54;;;;;;;3.88;2.30;;;16.60;1.00;;;;;;7362194;19;20014;-61
2022/05/23 02:57:27;;;;;;;2.88;2.10;;;16.50;1.00;;;;;;7365926;19;20397;-61
2022/05/23 02:59:57;;;;;;;4.47;2.33;;;16.50;1.00;;;;;;7387614;19;20028;-61
2022/05/23 03:05:11;;;;;;;3.42;2.88;;;16.60;1.00;;;;;;7361395;19;20019;-61
2022/05/23 03:07:41;;;;;;;9.10;2.67;;;16.70;1.00;;;;;;7366717;19;20011;-61
2022/05/23 03:10:11;;;;;;;4.70;2.30;;;16.80;1.00;;;;;;7365025;19;20010;-61
2022/05/23 03:12:45;;;;;;;3.78;2.80;;;16.80;1.00;;;;;;7357960;19;20085;-61
2022/05/23 03:15:15;;;;;;;3.40;2.65;;;16.70;1.00;;;;;;7361071;19;20233;-61
2022/05/23 03:17:45;;;;;;;4.70;2.38;;;16.60;1.00;;;;;;7387897;19;20015;-61
2022/05/23 03:20:16;;;;;;;3.75;2.33;;;16.60;1.00;;;;;;7363908;19;20024;-60
2022/05/23 03:28:13;;;;;;;4.13;2.95;;;16.60;1.00;;;;;;7366682;19;20495;-60
2022/05/23 03:30:43;;;;;;;2.97;2.65;;;16.70;1.00;;;;;;7362880;19;20011;-61
2022/05/23 03:33:14;;;;;;;3.10;2.30;;;16.70;1.00;;;;;;7360656;19;20015;-61
2022/05/23 03:35:44;;;;;;;3.58;2.20;;;16.60;1.00;;;;;;7384417;19;20017;-60
2022/05/23 03:38:14;;;;;;;4.53;2.60;;;16.60;1.00;;;;;;7365199;19;20022;-60
2022/05/23 03:40:44;;;;;;;2.60;2.30;;;16.60;1.00;;;;;;7363184;19;20013;-60
2022/05/23 03:43:17;;;;;;;4.03;2.58;;;16.60;1.00;;;;;;7360179;19;20722;-60
2022/05/23 03:45:48;;;;;;;4.70;2.58;;;16.50;1.00;;;;;;7362473;19;20011;-61
2022/05/23 03:48:18;;;;;;;3.95;2.83;;;16.60;1.00;;;;;;7365386;19;20022;-60
2022/05/23 03:50:48;;;;;;;5.38;3.10;;;16.60;1.00;;;;;;7383947;19;20018;-60
2022/05/23 03:53:19;;;;;;;4.05;2.70;;;16.60;1.00;;;;;;7360206;19;20074;-61
2022/05/23 03:55:52;;;;;;;4.05;2.28;;;16.70;1.00;;;;;;7362879;19;20094;-60
2022/05/23 03:58:24;;;;;;;3.85;2.67;;;16.70;1.00;;;;;;7364768;19;20013;-60
2022/05/23 04:00:54;;;;;;;6.00;2.70;;;16.60;1.00;;;;;;7361841;19;20268;-60
2022/05/23 04:03:24;;;;;;;5.18;3.10;;;16.70;1.00;;;;;;7360532;19;20546;-60
2022/05/23 04:05:54;;;;;;;4.50;2.85;;;16.70;1.00;;;;;;7384877;19;20013;-62
2022/05/23 04:08:24;;;;;;;6.65;3.08;;;16.50;1.00;;;;;;7363767;19;20098;-62
2022/05/23 04:10:54;;;;;;;8.25;3.90;;;16.20;1.00;;;;;;7361683;19;20657;-61
2022/05/23 04:13:27;;;;;;;7.28;4.22;;;15.70;1.00;;;;;;7360395;19;20082;-61
2022/05/23 04:15:57;;;;;;;8.68;5.43;;;15.20;3.00;;;;;;7363308;19;20470;-61
2022/05/23 04:18:27;;;;;;;9.80;5.07;;;14.80;15.50;;;;;;7364390;19;20035;-61
2022/05/23 04:21:01;;;;;;;9.75;5.25;;;14.70;16.20;;;;;;7383864;19;20367;-61
2022/05/23 04:23:31;;;;;;;10.75;5.60;;;14.60;18.50;;;;;;7358728;19;20530;-61
2022/05/23 04:26:06;;;;;;;11.23;5.60;;;14.70;18.30;;;;;;7369918;19;20003;-61
2022/05/23 04:28:41;;;;;;;6.57;5.15;;;14.60;20.50;;;;;;7370915;19;20013;-60
2022/05/23 04:31:12;;;;;;;7.20;3.85;;;14.70;21.30;;;;;;7368956;19;20040;-62
2022/05/23 04:36:25;;;;;;;4.53;3.78;;;14.90;16.00;;;;;;7371800;19;20018;-60
2022/05/23 04:38:55;;;;;;;4.20;3.80;;;15.00;14.80;;;;;;7389762;19;20094;-61
2022/05/23 04:41:26;;;;;;;5.63;3.75;;;14.90;13.10;;;;;;7364493;19;20010;-60
2022/05/23 04:44:03;;;;;;;6.03;3.60;;;14.80;15.10;;;;;;7367833;19;20482;-60
2022/05/23 04:46:33;;;;;;;4.82;3.60;;;14.90;15.60;;;;;;7371280;19;20506;-60
2022/05/23 04:51:46;;;;;;;6.80;4.68;;;14.90;18.80;;;;;;7365055;19;20011;-61
2022/05/23 04:54:16;;;;;;;6.50;4.65;;;14.80;19.20;;;;;;7367021;19;20086;-62
2022/05/23 04:56:45;;;;;;;7.45;5.03;;;14.90;23.20;;;;;;7392327;19;20014;-61
2022/05/23 04:59:18;;;;;;;10.05;4.85;;;14.80;25.40;;;;;;7369879;19;20082;-62
2022/05/23 05:01:48;;;;;;;7.50;4.53;;;14.70;22.90;;;;;;7363936;19;20088;-62
2022/05/23 05:04:18;;;;;;;6.82;4.20;;;14.70;24.80;;;;;;7367918;19;20478;-62
2022/05/23 05:06:47;;;;;;;6.93;4.68;;;14.70;26.50;;;;;;7370847;19;20006;-62
2022/05/23 05:09:17;;;;;;;6.88;4.78;;;14.50;30.30;;;;;;7369666;19;20011;-62
2022/05/23 05:11:47;;;;;;;5.40;4.80;;;14.50;33.90;;;;;;7384867;19;20537;-62
2022/05/23 05:14:20;;;;;;;6.90;4.90;;;14.50;35.60;;;;;;7365658;19;20111;-62
2022/05/23 05:16:50;;;;;;;9.02;4.65;;;14.50;39.10;;;;;;7370291;19;20084;-62
2022/05/23 05:19:20;;;;;;;5.72;5.07;;;14.50;40.10;;;;;;7369089;19;20018;-62
2022/05/23 05:21:50;;;;;;;10.55;5.20;;;14.40;40.60;;;;;;7363196;19;20010;-61
2022/05/23 05:24:20;;;;;;;8.18;4.80;;;14.40;40.80;;;;;;7367479;19;20109;-61
2022/05/23 05:26:50;;;;;;;6.00;4.97;;;14.20;38.80;;;;;;7392083;19;20082;-61
2022/05/23 05:29:23;;;;;;;10.90;5.18;;;14.50;41.70;;;;;;7367758;19;20098;-61
2022/05/23 05:31:58;;;;;;;8.68;5.60;;;14.70;41.20;;;;;;7362240;19;20017;-61
2022/05/23 05:34:32;;;;;;;6.00;5.35;;;14.80;39.90;;;;;;7363940;19;20010;-60
2022/05/23 05:37:07;;;;;;;8.88;5.10;;;14.90;41.40;;;;;;7364843;19;20017;-61
2022/05/23 05:39:38;;;;;;;;;;;14.80;37.00;;;;;;7368485;19;20040;-61
2022/05/23 05:42:12;;;;;;;7.72;4.93;;;15.00;37.40;;;;;;7362297;19;19998;-61
2022/05/23 05:44:48;;;;;;;11.35;5.30;;;14.90;32.80;;;;;;7387186;19;20126;-62
2022/05/23 05:47:19;;;;;;;8.05;5.60;;;15.10;36.90;;;;;;7368958;19;20018;-62
2022/05/23 05:50:01;;;;;;;8.73;5.18;;;15.10;36.20;;;;;;7366801;19;20418;-61
2022/05/23 05:52:33;;;;;;;;;;;15.10;37.30;;;;;;7362302;19;20340;-62
2022/05/23 05:55:04;;;;;;;6.85;5.85;;;15.00;31.50;;;;;;7365510;19;19925;-61
2022/05/23 05:57:34;;;;;;;7.50;5.55;;;15.30;34.60;;;;;;7368778;19;20034;-61
2022/05/23 06:00:08;;;;;;;8.65;5.70;;;15.20;34.40;;;;;;7366798;19;20050;-62
2022/05/23 06:02:38;;;;;;;9.38;5.43;;;15.10;31.80;;;;;;7383075;19;20388;-62
2022/05/23 06:05:09;;;;;;;5.55;5.05;;;15.10;32.20;;;;;;7364738;19;20115;-61
2022/05/23 06:13:19;;;;;;;6.68;5.20;;;15.40;27.60;;;;;;7362130;19;20028;-61
2022/05/23 06:15:52;;;;;;;9.70;5.13;;;15.60;25.90;;;;;;7364793;19;20071;-62
2022/05/23 06:18:22;;;;;;;5.38;4.88;;;15.80;26.00;;;;;;7368133;19;20010;-61
2022/05/23 06:20:54;;;;;;;7.22;5.25;;;15.90;26.90;;;;;;7384935;19;20006;-62
2022/05/23 06:23:24;;;;;;;5.30;4.80;;;16.10;25.90;;;;;;7362927;19;20052;-62
2022/05/23 06:25:54;;;;;;;6.18;4.90;;;16.00;23.60;;;;;;7366684;19;20066;-62
2022/05/23 06:28:24;;;;;;;7.80;5.55;;;16.10;23.70;;;;;;7367529;19;20093;-62
2022/05/23 06:30:57;;;;;;;6.85;4.55;;;16.60;22.00;;;;;;7363379;19;20032;-60
2022/05/23 06:33:27;;;;;;;4.97;4.38;;;17.00;19.80;;;;;;7361748;19;20515;-62
2022/05/23 06:35:58;;;;;;;7.07;4.40;;;16.70;21.00;;;;;;7387247;19;20014;-61
2022/05/23 06:38:28;;;;;;;5.30;4.63;;;16.60;21.50;;;;;;7367799;19;20791;-62
2022/05/23 06:40:58;;;;;;;7.38;4.35;;;16.60;20.80;;;;;;7363422;19;20021;-62
2022/05/23 06:43:28;;;;;;;8.02;3.55;;;16.60;21.40;;;;;;7361505;19;20093;-62
2022/05/23 06:46:02;;;;;;;6.40;4.10;;;16.90;17.50;;;;;;7365040;19;20089;-62
2022/05/23 06:48:33;;;;;;;6.97;4.25;;;16.80;16.80;;;;;;7366132;19;20018;-62
2022/05/23 06:51:03;;;;;;;8.27;4.72;;;16.80;17.90;;;;;;7362608;19;20396;-62
2022/05/23 06:53:33;;;;;;;5.38;4.35;;;16.70;15.10;;;;;;7383256;19;20015;-62
2022/05/23 06:56:03;;;;;;;4.80;4.40;;;16.80;13.80;;;;;;7365315;19;20014;-62
2022/05/23 06:58:33;;;;;;;9.40;4.63;;;17.00;14.00;;;;;;7365549;19;20014;-62
2022/05/23 07:01:06;;;;;;;7.45;4.40;;;17.00;13.10;;;;;;7362818;19;20512;-62
2022/05/23 07:03:35;;;;;;;7.07;4.28;;;17.10;12.70;;;;;;7360835;19;20015;-62
2022/05/23 07:14:15;;;;;;;5.50;4.15;;;17.60;8.80;;;;;;7361953;19;20026;-62
2022/05/23 07:16:47;;;;;;;4.88;3.88;;;18.00;7.50;;;;;;7365447;19;20022;-62
2022/05/23 07:19:18;;;;;;;5.65;3.38;;;18.30;7.00;;;;;;7364623;19;20526;-62
2022/05/23 07:21:48;;;;;;;6.80;3.67;;;18.50;2.70;;;;;;7359013;19;20006;-62
2022/05/23 07:24:18;;;;;;;4.15;3.40;;;18.70;1.00;;;;;;7362555;19;20038;-62
2022/05/23 07:26:48;;;;;;;5.35;3.40;;;18.60;1.00;;;;;;7386587;19;20027;-61
2022/05/23 07:29:19;;;;;;;5.05;3.53;;;18.80;1.00;;;;;;7365090;19;20010;-61
2022/05/23 07:31:53;;;;;;;5.57;3.65;;;18.70;1.00;;;;;;7358709;19;20089;-61
2022/05/23 07:34:23;;;;;;;6.13;3.33;;;18.80;1.00;;;;;;7361542;19;20011;-61
2022/05/23 07:36:53;;;;;;;6.28;3.20;;;19.00;1.00;;;;;;7365587;19;20020;-61
2022/05/23 07:39:24;;;;;;;3.47;2.78;;;18.90;1.00;;;;;;7365283;19;20106;-61
2022/05/23 07:41:54;;;;;;;4.95;3.28;;;19.00;1.00;;;;;;7379543;19;20010;-61
2022/05/23 07:44:24;;;;;;;4.95;2.88;;;19.10;1.00;;;;;;7360937;19;20848;-61
2022/05/23 07:46:56;;;;;;;4.05;3.47;;;19.10;1.00;;;;;;7364769;19;20023;-61
2022/05/23 07:49:26;;;;;;;4.72;3.05;;;19.10;1.00;;;;;;7364613;19;20006;-60
2022/05/23 07:51:56;;;;;;;5.00;3.05;;;19.00;1.00;;;;;;7358694;19;20420;-61
2022/05/23 08:02:37;;;;;;;6.03;3.25;;;19.60;1.00;;;;;;7372196;19;20487;-61
2022/05/23 08:05:08;;;;;;;3.80;3.22;;;19.50;1.00;;;;;;7374341;19;20010;-62
2022/05/23 08:07:43;;;;;;;6.25;3.03;;;19.50;1.00;;;;;;7379284;19;20014;-62
2022/05/23 08:10:14;;;;;;;3.85;2.97;;;19.50;1.00;;;;;;7378280;19;20099;-61
2022/05/23 08:12:46;;;;;;;5.68;3.50;;;19.40;1.00;;;;;;7371783;19;20011;-61
2022/05/23 08:15:18;;;;;;;6.10;3.45;;;19.90;1.00;;;;;;7373619;19;20464;-61
2022/05/23 08:17:51;;;;;;;8.50;3.63;;;19.60;1.00;;;;;;7400298;19;20090;-61
2022/05/23 08:20:27;;;;;;;3.92;3.33;;;19.90;1.00;;;;;;7376913;19;20485;-61
2022/05/23 08:22:59;;;;;;;5.90;3.80;;;19.80;1.00;;;;;;7371985;19;20007;-61
2022/05/23 08:25:29;;;;;;;6.72;3.40;;;19.90;1.00;;;;;;7375278;19;20023;-61
2022/05/23 08:27:59;;;;;;;5.05;3.60;;;19.60;1.00;;;;;;7377945;19;20356;-61
2022/05/23 08:30:29;;;;;;;4.72;3.72;;;19.80;1.00;;;;;;7375314;19;20442;-62
2022/05/23 08:33:01;;;;;;;7.53;4.20;;;19.80;1.00;;;;;;7395330;19;20437;-61
2022/05/23 08:35:31;;;;;;;4.85;3.78;;;20.10;1.00;;;;;;7373587;19;20010;-61
2022/05/23 08:38:02;;;;;;;11.25;3.90;;;19.90;1.00;;;;;;7378025;19;20129;-61
2022/05/23 08:40:38;;;;;;;8.95;3.45;;;19.70;1.00;;;;;;7375093;19;20095;-61
2022/05/23 08:43:08;;;;;;;7.28;4.05;;;20.10;1.00;;;;;;7373828;19;20082;-61
2022/05/23 08:45:44;;;;;;;4.78;3.63;;;20.10;1.00;;;;;;7375150;19;20002;-61
2022/05/23 08:48:22;;;;;;;6.30;3.90;;;20.00;1.00;;;;;;7377919;19;20010;-61
2022/05/23 08:50:59;;;;;;;9.02;3.38;;;20.10;1.00;;;;;;7396441;19;20020;-61
2022/05/23 08:53:35;;;;;;;7.38;3.83;;;20.50;1.00;;;;;;7371370;19;20010;-61
2022/05/23 08:56:13;;;;;;;7.13;3.45;;;20.40;1.00;;;;;;7375284;19;20014;-62
2022/05/23 08:58:48;;;;;;;3.97;3.33;;;20.50;1.00;;;;;;7376262;19;20309;-62
2022/05/23 09:01:21;;;;;;;4.68;3.58;;;20.40;1.00;;;;;;7370345;19;20010;-62
2022/05/23 09:03:59;;;;;;;3.90;2.60;;;20.70;1.00;;;;;;7374691;19;20579;-62
2022/05/23 09:06:34;;;;;;;4.80;3.60;;;20.60;1.00;;;;;;7377257;19;20826;-62
2022/05/23 09:09:08;;;;;;;4.53;2.75;;;20.90;1.00;;;;;;7377382;19;20089;-62
2022/05/23 09:11:41;;;;;;;6.35;3.05;;;21.40;1.00;;;;;;7385731;19;20485;-61
2022/05/23 09:14:14;;;;;;;6.88;2.88;;;21.20;1.00;;;;;;7366389;19;20034;-62
2022/05/23 09:16:48;;;;;;;5.43;2.72;;;21.20;1.00;;;;;;7365775;19;20414;-62
2022/05/23 09:19:25;;;;;;;4.75;3.08;;;21.00;1.00;;;;;;7368018;19;20046;-62
2022/05/23 09:22:18;;;;;;;4.18;2.90;;;21.00;1.00;;;;;;7362078;19;20049;-62
2022/05/23 09:24:51;;;;;;;6.28;3.20;;;21.50;1.00;;;;;;7367453;19;20010;-62
2022/05/23 09:27:34;;;;;;;6.53;3.30;;;21.40;1.00;;;;;;7369240;19;20150;-62
2022/05/23 09:30:08;;;;;;;5.57;3.40;;;21.50;1.00;;;;;;7369127;19;20482;-62
2022/05/23 09:32:44;;;;;;;5.68;3.72;;;21.70;1.00;;;;;;7383941;19;20025;-62
2022/05/23 09:35:20;;;;;;;6.80;3.58;;;21.60;1.00;;;;;;7365029;19;20070;-61
2022/05/23 09:38:06;;;;;;;3.63;2.97;;;21.50;1.00;;;;;;7367958;19;20021;-61
2022/05/23 09:40:39;;;;;;;9.23;3.17;;;21.40;1.00;;;;;;7366257;19;20076;-61
2022/05/23 09:49:08;;;;;;;4.55;3.22;;;21.60;1.00;;;;;;7368262;19;20111;-61
2022/05/23 09:51:56;;;;;;;6.53;3.00;;;21.90;1.00;;;;;;7361922;19;20014;-61
2022/05/23 09:54:32;;;;;;;6.70;3.90;;;22.00;1.00;;;;;;7366365;19;20020;-61
2022/05/23 09:57:06;;;;;;;7.53;3.60;;;22.40;1.00;;;;;;7367440;19;20470;-62
2022/05/23 09:59:40;;;;;;;5.07;3.38;;;22.10;1.00;;;;;;7390291;19;20370;-61
2022/05/23 10:02:24;;;;;;;6.28;4.45;;;22.20;1.00;;;;;;7360318;19;20022;-61
2022/05/23 10:04:54;;;;;;;5.93;3.25;;;22.40;1.00;;;;;;7365213;19;20031;-61
2022/05/23 10:07:32;;;;;;;5.47;3.55;;;22.20;1.00;;;;;;7369193;19;20010;-61
2022/05/23 10:10:03;;;;;;;7.65;4.60;;;22.60;1.00;;;;;;7366172;19;20007;-61
2022/05/23 10:12:34;;;;;;;10.07;4.65;;;23.00;1.00;;;;;;7361807;19;20070;-61
2022/05/23 10:15:13;;;;;;;5.32;3.60;;;23.00;1.00;;;;;;7363844;19;20010;-61
2022/05/23 10:17:46;;;;;;;4.57;3.60;;;23.60;1.00;;;;;;7387934;19;20018;-62
2022/05/23 10:20:27;;;;;;;4.78;3.22;;;23.70;1.00;;;;;;7366367;19;20530;-61
2022/05/23 10:23:04;;;;;;;4.22;2.97;;;23.20;1.00;;;;;;7361713;19;20014;-62
2022/05/23 10:25:40;;;;;;;8.38;3.70;;;23.50;1.00;;;;;;7365465;19;20035;-61
2022/05/23 10:28:15;;;;;;;5.07;3.28;;;23.10;1.00;;;;;;7368732;19;20002;-62
2022/05/23 10:30:53;;;;;;;3.72;3.17;;;22.70;1.00;;;;;;7362810;19;20007;-62
2022/05/23 10:33:27;;;;;;;7.13;3.10;;;22.90;1.00;;;;;;7363249;19;20125;-62
2022/05/23 10:36:04;;;;;;;6.00;3.13;;;23.10;1.00;;;;;;7385375;19;20461;-60
2022/05/23 10:44:21;;;;;;;5.65;2.67;;;23.10;1.00;;;;;;7362813;19;20358;-61
2022/05/23 10:47:04;;;;;;;4.93;3.00;;;23.00;1.00;;;;;;7366667;19;20006;-61
2022/05/23 10:49:51;;;;;;;;;;;23.10;1.00;;;;;;7367135;19;20435;-61
2022/05/23 10:52:27;;;;;;;;;;;23.30;1.00;;;;;;7359229;19;20428;-61
2022/05/23 10:55:02;;;;;;;;;;;23.30;1.00;;;;;;7363636;19;19907;-61
2022/05/23 10:57:37;;;;;;;;;;;23.30;1.00;;;;;;7363536;19;19915;-61
2022/05/23 11:00:09;;;;;;;;;;;23.20;1.00;;;;;;7362762;19;19981;-62
2022/05/23 11:02:46;;;;;;;;;;;23.30;1.00;;;;;;7376953;19;19918;-61
2022/05/23 11:05:21;;;;;;;;;;;23.20;1.00;;;;;;7361231;19;19934;-62
2022/05/23 11:07:57;;;;;;;;;;;22.90;1.00;;;;;;7366305;19;20356;-62
2022/05/23 11:10:32;;;;;;;;;;;22.80;1.00;;;;;;7362085;19;20345;-61
2022/05/23 11:13:14;;;;;;;;;;;22.70;1.00;;;;;;7360889;19;19922;-61
2022/05/23 11:15:52;;;;;;;;;;;22.20;1.00;;;;;;7361296;19;19938;-60
2022/05/23 11:18:30;;;;;;;;;;;21.90;1.00;;;;;;7364322;19;19918;-62
2022/05/23 11:21:03;;;;;;;;;;;21.50;1.00;;;;;;7383418;19;19922;-62
2022/05/23 11:23:38;;;;;;;;;;;21.10;2.70;;;;;;7360008;19;19935;-62
2022/05/23 11:26:11;;;;;;;;;;;20.60;8.60;;;;;;7365155;19;19982;-63
2022/05/23 11:34:21;;;;;;;;;;;19.70;18.90;;;;;;7359121;19;19918;-62
2022/05/23 11:37:01;;;;;;;;;;;19.80;21.70;;;;;;7364411;19;19915;-61
2022/05/23 11:39:47;;;;;;;;;;;19.80;21.70;;;;;;7364258;19;19982;-62
2022/05/23 11:42:28;;;;;;;;;;;19.80;22.20;;;;;;7356783;19;19918;-62
2022/05/23 11:47:58;;;;;;;;;;;19.90;18.90;;;;;;7263277;19;2005083;-62
2022/05/23 11:50:30;;;;;;;;;;;19.80;19.90;;;;;;7388183;19;19907;-61
2022/05/23 11:53:06;;;;;;;;;;;19.70;24.30;;;;;;7360531;19;19907;-62
2022/05/23 11:55:51;;;;;;;;;;;19.60;25.10;;;;;;7362861;19;19919;-63
2022/05/23 11:58:24;;;;;;;;;;;19.60;27.00;;;;;;7364895;19;20284;-62
2022/05/23 12:01:04;;;;;;;;;;;19.80;26.30;;;;;;7361484;19;20226;-63
2022/05/23 12:03:49;;;;;;;;;;;19.70;28.70;;;;;;7360539;19;19925;-63
2022/05/23 12:06:19;;;;;;;;;;;19.60;29.30;;;;;;7366488;19;20394;-62
2022/05/23 12:09:02;;;;;;;;;;;19.70;28.70;;;;;;7386536;19;19919;-63
2022/05/23 12:11:32;;;;;;;;;;;19.50;29.80;;;;;;7357674;19;19919;-61
2022/05/23 12:14:17;;;;;;;;;;;19.60;30.00;;;;;;7360570;19;19922;-62
2022/05/23 12:17:05;;;;;;;;;;;19.40;26.90;;;;;;7363873;19;19911;-62
2022/05/23 12:19:50;;;;;;;;;;;19.40;28.90;;;;;;7365727;19;19917;-61
2022/05/23 12:22:27;;;;;;;;;;;19.50;22.40;;;;;;7355420;19;19938;-62
2022/05/23 12:25:21;;;;;;;;;;;19.60;19.70;;;;;;7360404;19;20351;-61
2022/05/23 12:28:22;;;;;;;;;;;19.50;18.60;;;;;;7364694;19;19910;-62
2022/05/23 12:31:11;;;;;;;;;;;19.20;20.30;;;;;;7361482;19;19921;-61
2022/05/23 12:33:49;;;;;;;;;;;19.00;24.20;;;;;;7360163;19;19914;-61
2022/05/23 12:36:23;;;;;;;;;;;18.70;25.90;;;;;;7364694;19;19931;-61
2022/05/23 12:39:01;;;;;;;;;;;18.80;26.60;;;;;;7384337;19;19922;-60
2022/05/23 12:41:40;;;;;;;;;;;18.70;28.00;;;;;;7356298;19;20007;-62
2022/05/23 12:44:24;;;;;;;;;;;18.70;28.00;;;;;;7357673;19;19935;-61
2022/05/23 12:47:01;;;;;;;;;;;18.80;25.40;;;;;;7368116;19;19963;-62
2022/05/23 12:49:44;;;;;;;;;;;19.00;27.30;;;;;;7371082;19;19911;-62
2022/05/23 12:52:22;;;;;;;;;;;19.20;23.80;;;;;;7361790;19;20379;-62
2022/05/23 12:54:58;;;;;;;;;;;19.40;23.40;;;;;;7368991;19;19917;-62
2022/05/23 12:57:34;;;;;;;;;;;19.30;23.70;;;;;;7371350;19;19983;-62
2022/05/23 13:00:05;;;;;;;;;;;19.50;23.80;;;;;;7370978;19;19925;-62
2022/05/23 13:02:37;;;;;;;;;;;19.80;23.60;;;;;;7389367;19;19919;-62
2022/05/23 13:05:13;;;;;;;;;;;20.00;21.80;;;;;;7366989;19;19980;-61
2022/05/23 13:07:49;;;;;;;;;;;20.00;18.70;;;;;;7371084;19;19982;-61
2022/05/23 13:10:21;;;;;;;;;;;20.20;21.00;;;;;;7371032;19;19910;-61
2022/05/23 13:12:55;;;;;;;;;;;20.10;19.30;;;;;;7363237;19;19911;-62
2022/05/23 13:15:27;;;;;;;;;;;20.70;16.20;;;;;;7366800;19;19925;-62
2022/05/23 13:22:05;;;;;;;;;;;20.80;14.60;;;;;;7391625;19;19974;-62
2022/05/23 13:23:53;;;;;;;;;;;21.00;11.60;;;;;;7390916;19;19970;-62
2022/05/23 13:26:24;;;;;;;;;;;21.30;9.20;;;;;;7368872;19;19925;-62
2022/05/23 13:29:12;;;;;;;;;;;21.40;10.10;;;;;;7367633;19;19915;-62
2022/05/23 13:31:41;;;;;;;;;;;21.20;7.90;;;;;;7361077;19;19920;-62
2022/05/23 13:34:13;;;;;;;;;;;21.50;6.60;;;;;;7366857;19;20414;-62
2022/05/23 13:36:47;;;;;;;;;;;21.40;6.70;;;;;;7367429;19;19924;-62
2022/05/23 13:39:18;;;;;;;;;;;21.50;9.20;;;;;;7369233;19;20003;-61
2022/05/23 13:41:48;;;;;;;;;;;21.70;5.60;;;;;;7383072;19;19914;-62
2022/05/23 13:44:25;;;;;;;;;;;22.10;4.70;;;;;;7367137;19;19975;-61
2022/05/23 13:46:56;;;;;;;;;;;22.30;2.50;;;;;;7367946;19;19921;-61
2022/05/23 13:49:28;;;;;;;;;;;22.80;1.00;;;;;;7369519;19;20808;-61
2022/05/23 13:52:02;;;;;;;;;;;22.60;1.00;;;;;;7361537;19;19917;-61
2022/05/23 13:54:35;;;;;;;;;;;23.20;1.00;;;;;;7367888;19;19939;-62
2022/05/23 13:57:09;;;;;;;;;;;23.10;1.00;;;;;;7366063;19;19917;-62
2022/05/23 13:59:42;;;;;;;;;;;23.50;1.00;;;;;;7388897;19;20309;-63
2022/05/23 14:02:14;;;;;;;;;;;23.20;1.00;;;;;;7361250;19;19919;-62
2022/05/23 14:04:44;;;;;;;;;;;23.50;1.00;;;;;;7366647;19;19910;-62
2022/05/23 14:07:19;;;;;;;;;;;23.80;1.00;;;;;;7367592;19;20292;-62
2022/05/23 14:09:52;;;;;;;;;;;23.90;1.00;;;;;;7369550;19;20006;-62
2022/05/23 14:12:26;;;;;;;;;;;24.20;1.00;;;;;;7361394;19;20022;-62
2022/05/23 14:14:57;;;;;;;;;;;24.10;1.00;;;;;;7386688;19;19930;-62
2022/05/23 14:17:30;;;;;;;;;;;24.10;1.00;;;;;;7367990;19;19979;-62
2022/05/23 14:20:13;;;;;;;;;;;24.10;1.00;;;;;;7367627;19;19922;-62
2022/05/23 14:23:00;;;;;;;;;;;24.50;1.00;;;;;;7361976;19;19914;-62
2022/05/23 14:25:33;;;;;;;;;;;24.60;1.00;;;;;;7364167;19;19971;-62
2022/05/23 14:28:10;;;;;;;;;;;24.40;1.00;;;;;;7367491;19;20457;-62
2022/05/23 14:30:40;;;;;;;;;;;24.60;1.00;;;;;;7363222;19;19931;-63
2022/05/23 14:33:19;;;;;;;;;;;24.60;1.00;;;;;;7366155;19;20297;-62
2022/05/23 14:35:53;;;;;;;;;;;24.50;1.00;;;;;;7382335;19;19932;-62
2022/05/23 14:38:27;;;;;;;;;;;24.60;1.00;;;;;;7364522;19;20919;-62
2022/05/23 14:40:57;;;;;;;;;;;24.90;1.00;;;;;;7361538;19;19911;-61
2022/05/23 14:43:31;;;;;;;;;;;25.00;1.00;;;;;;7365100;19;19917;-62
2022/05/23 14:46:02;;;;;;;;;;;25.10;1.00;;;;;;7364064;19;19906;-61
2022/05/23 14:48:33;;;;;;;;;;;24.90;1.00;;;;;;7366322;19;19915;-62
2022/05/23 14:51:11;;;;;;;;;;;24.60;1.00;;;;;;7362884;19;20677;-63
2022/05/23 14:56:30;;;;;;;;;;;24.50;1.00;;;;;;7363069;19;19910;-62
2022/05/23 15:01:43;;;;;;;;;;;24.50;1.00;;;;;;7357963;19;19915;-62